Stations météo

réclame
Mon MeteoGroup
Wasserkuppe, Allemagne (10544): Température de l'air & dewpoint: 06.12.2019 07:00:00 - 12.12.2019 07:00:00 (CET)Wasserkuppe, Allemagne (10544): Température de l'air 5cm & Température de l'air -5cm: 06.12.2019 07:00:00 - 12.12.2019 07:00:00 (CET)Wasserkuppe, Allemagne (10544): Température de l'air -20cm & Température de l'air -100cm: 06.12.2019 07:00:00 - 12.12.2019 07:00:00 (CET)Wasserkuppe, Allemagne (10544): Vitesse du vent & gusts: 06.12.2019 07:00:00 - 12.12.2019 07:00:00 (CET)Wasserkuppe, Allemagne (10544): Direction du vent: 06.12.2019 07:00:00 - 12.12.2019 07:00:00 (CET)Wasserkuppe, Allemagne (10544): visibility: 06.12.2019 07:00:00 - 12.12.2019 07:00:00 (CET)Wasserkuppe, Allemagne (10544): Ensoleillement: 06.12.2019 07:00:00 - 12.12.2019 07:00:00 (CET)Wasserkuppe, Allemagne (10544): Quantités de précipitations: 06.12.2019 07:00:00 - 12.12.2019 07:00:00 (CET)
Date & Time tt [°C] td [°C] tt 5cm [°C] tt -5cm [°C] tt -20cm [°C] tt -100cm [°C] ff [km/h] ff [knt] fx [km/h] fx [knt] dd vv [km] sd [min] rr [mm]
12.12.2019 07:00:00 -1,4 -1,4 -1,4 0,7 1,9 4,9 24 13 36 20 SW 0,1 0 0,0
12.12.2019 06:00:00 -1,6 -1,7 -1,5 0,7 1,9 4,9 26 14 36 19 WSW 0,1 0 0,0
12.12.2019 05:00:00 -1,6 -1,6 -1,2 0,7 1,9 4,9 28 15 39 21 WSW 0,1 0 0,0
12.12.2019 04:00:00 -1,9 -2,0 -1,5 0,7 1,9 4,9 23 13 32 17 WSW 0,1 0 0,0
12.12.2019 03:00:00 -2,1 -2,2 -1,6 0,7 1,9 4,9 20 11 29 16 W 0,1 0 0,6
12.12.2019 02:00:00 -2,4 -2,6 -1,9 0,7 1,9 4,9 22 12 29 16 WSW 0,4 0 1,5
12.12.2019 01:00:00 -2,6 -2,8 -2,1 0,7 1,9 4,9 19 11 35 19 WSW 0,1 0 0,8
12.12.2019 00:00:00 -2,8 -3,0 -2,2 0,7 1,9 4,9 26 14 40 21 WSW 0,3 0 0,8
11.12.2019 23:00:00 -2,6 -2,8 -2,3 0,7 1,9 4,9 29 15 41 22 SW 0,2 0 1,6
11.12.2019 22:00:00 -2,6 -2,7 -2,5 0,7 1,9 4,9 29 15 40 22 SW 0,2 0 2,2
11.12.2019 21:00:00 -2,6 -2,7 -2,6 0,7 1,9 4,9 28 15 46 25 SW 0,3 0 1,6
11.12.2019 20:00:00 -2,9 -3,1 -2,8 0,7 1,9 4,9 34 18 45 24 SSW 0,7 0 2,0
11.12.2019 19:00:00 -2,7 -2,9 -2,7 0,7 2,0 4,9 34 19 46 25 S 0,7 0 0,4
11.12.2019 18:00:00 -2,7 -2,9 -2,7 0,7 2,0 4,9 40 21 52 28 S 1,0 0 0,5
11.12.2019 17:00:00 -2,2 -2,6 -2,2 0,8 2,0 4,9 43 23 60 32 S 3,5 0 0,2
11.12.2019 16:00:00 -3,0 -4,8 -3,1 0,8 2,0 4,9 37 20 45 24 S 13 0 0,0
11.12.2019 15:00:00 -1,9 -6,5 -2,5 0,8 2,0 4,9 29 16 44 24 SSW 60 0 0,0
11.12.2019 14:00:00 -1,3 -6,6 -2,4 0,8 2,0 4,9 33 18 46 25 S 60 0 0,0
11.12.2019 13:00:00 -1,8 -6,6 -2,7 0,8 2,0 4,9 36 19 45 24 S 60 0 0,0
11.12.2019 12:00:00 -2,1 -6,1 -2,8 0,8 2,0 4,9 33 18 44 24 S 60 0 0,0
11.12.2019 11:00:00 -1,3 -6,6 -2,4 0,8 2,0 4,9 25 13 32 18 S 60 0 0,0
11.12.2019 10:00:00 -1,9 -6,1 -2,9 0,8 2,0 4,9 24 13 32 17 S 55 0 0,0
11.12.2019 09:00:00 -2,3 -6,0 -3,2 0,8 2,0 4,9 18 10 31 17 SSW 45 0 0,0
11.12.2019 08:00:00 -3,0 -5,4 -3,5 0,8 2,0 4,9 24 13 33 18 SSW 45 0 0,0
11.12.2019 07:00:00 -3,1 -5,4 -3,8 0,8 2,0 4,9 27 15 38 21 SSW 45 0 0,0
11.12.2019 06:00:00 -3,1 -5,7 -3,9 0,8 2,0 5,0 28 15 45 24 S 50 0 0,0
11.12.2019 05:00:00 -3,0 -5,1 -3,8 0,8 2,0 5,0 33 18 47 25 S 36 0 0,0
11.12.2019 04:00:00 -2,7 -4,8 -3,3 0,8 2,0 5,0 41 22 58 31 S 33 0 0,0
11.12.2019 03:00:00 -2,6 -4,6 -3,1 0,8 2,1 5,0 43 23 56 31 S 33 0 0,0
11.12.2019 02:00:00 -2,8 -4,5 -3,5 0,8 2,1 5,0 39 21 57 31 S 36 0 0,0
11.12.2019 01:00:00 -3,0 -4,3 -3,8 0,8 2,1 5,0 45 25 58 31 SSW 30 0 0,0
11.12.2019 00:00:00 -2,7 -4,2 -3,1 0,8 2,1 5,0 49 26 59 32 S 32 0 0,0
10.12.2019 23:00:00 -2,8 -3,7 -3,1 0,8 2,1 5,0 48 26 61 33 S 26 0 0,0
10.12.2019 22:00:00 -3,1 -3,9 -3,5 0,8 2,1 5,0 45 24 55 30 S 25 0 0,0
10.12.2019 21:00:00 -3,1 -4,4 -4,3 0,8 2,1 5,0 43 23 59 32 SSW 28 0 0,0
10.12.2019 20:00:00 -3,0 -3,7 -3,9 0,9 2,1 5,0 43 23 53 29 SSW 23 0 0,0
10.12.2019 19:00:00 -2,7 -3,1 -3,1 0,9 2,1 5,0 38 20 53 29 SSW 13 0 0,0
10.12.2019 18:00:00 -3,0 -3,8 -4,1 0,9 2,1 5,0 40 22 50 27 SSW 21 0 0,0
10.12.2019 17:00:00 -2,9 -3,6 -3,9 0,9 2,1 5,0 35 19 43 23 SSW 18 0 0,0
10.12.2019 16:00:00 -2,3 -2,7 -2,8 1,0 2,1 5,0 29 16 37 20 SSW 12 16 0,0
10.12.2019 15:00:00 -1,9 -2,4 -1,9 1,0 2,2 5,0 25 13 32 17 SSW 8 44 0,0
10.12.2019 14:00:00 -1,3 -2,2 -2,1 1,0 2,2 5,0 19 10 27 15 SW 12 23 0,0
10.12.2019 13:00:00 -2,0 -2,4 -1,7 1,0 2,2 5,0 12 6 19 10 SSW 0,3 0 0,0
10.12.2019 12:00:00 -2,2 -2,8 -2,1 1,0 2,2 5,0 10 5 20 11 WSW 0,2 0 0,0
10.12.2019 11:00:00 -2,4 -2,8 -2,3 0,9 2,2 5,0 10 6 17 9 WSW 0,4 0 0,0
10.12.2019 10:00:00 -2,3 -2,6 -2,1 0,9 2,2 5,0 12 6 19 10 W 0,3 1 0,0
10.12.2019 09:00:00 -2,4 -2,6 -2,2 1,0 2,2 5,0 14 8 24 13 WNW 0,3 0 0,0
10.12.2019 08:00:00 -2,5 -2,8 -2,4 1,0 2,3 5,0 14 7 28 15 WNW 0,2 0 0,0
10.12.2019 07:00:00 -2,3 -2,6 -2,3 1,0 2,3 5,0 22 12 34 18 NW 0,2 0 0,0
10.12.2019 06:00:00 -2,2 -2,4 -2,2 1,0 2,3 5,0 25 14 40 21 NW 0,5 0 0,0
10.12.2019 05:00:00 -2,1 -2,3 -2,1 1,0 2,3 5,1 25 14 43 23 NNW 1,0 0 0,0
10.12.2019 04:00:00 -1,9 -2,1 -2,0 1,1 2,3 5,1 30 16 47 26 NNW 0,7 0 0,0
10.12.2019 03:00:00 -1,6 -1,8 -1,6 1,1 2,3 5,1 35 19 56 31 NNW 1,0 0 0,0
10.12.2019 02:00:00 -1,4 -1,5 -1,5 1,1 2,4 5,1 34 18 56 31 NNW 1,3 0 0,0
10.12.2019 01:00:00 -1,1 -1,2 -1,3 1,1 2,4 5,1 40 21 61 33 NNW 0,8 0 0,0
10.12.2019 00:00:00 -0,5 -0,5 -0,7 1,2 2,4 5,1 39 21 67 36 NNW 0,2 0 0,5
09.12.2019 23:00:00 -0,1 -0,1 -0,2 1,3 2,4 5,1 44 24 69 37 NNW 0,2 0 1,2
09.12.2019 22:00:00 0,1 0,1 -0,1 1,4 2,4 5,1 33 18 48 26 NNW 0,1 0 1,7
09.12.2019 21:00:00 0,4 0,4 0,0 1,5 2,4 5,1 27 14 45 24 NW 0,1 0 0,3
09.12.2019 20:00:00 0,8 0,8 0,4 1,6 2,4 5,1 22 12 36 19 WNW 0,1 0 0,5
09.12.2019 19:00:00 1,1 1,1 0,9 1,7 2,4 5,1 17 9 40 21 WNW 0,1 0 0,7
09.12.2019 18:00:00 1,3 1,3 1,2 1,8 2,4 5,1 18 10 35 19 WNW 0,1 0 0,0
09.12.2019 17:00:00 1,4 1,4 1,3 1,9 2,4 5,1 21 12 44 24 W 0,1 0 0,0
09.12.2019 16:00:00 1,3 1,3 1,2 1,9 2,4 5,1 29 16 50 27 WSW 0,2 0 0,0
09.12.2019 15:00:00 1,1 1,1 1,0 1,9 2,4 5,1 34 18 61 33 WSW 0,3 0 0,1
09.12.2019 14:00:00 1,0 1,0 0,9 1,9 2,4 5,1 49 26 66 36 SW 0,3 0 0,2
09.12.2019 13:00:00 1,6 1,6 1,6 1,8 2,4 5,1 46 25 67 36 SW 0,3 0 0,1
09.12.2019 12:00:00 1,3 1,3 1,3 1,7 2,4 5,1 42 23 72 39 SW 0,3 0 0,0
09.12.2019 11:00:00 1,2 1,2 1,2 1,6 2,4 5,1 53 29 77 42 SW 0,4 0 0,0
09.12.2019 10:00:00 1,0 1,0 1,0 1,5 2,5 5,1 54 29 74 40 SSW 0,5 0 0,1
09.12.2019 09:00:00 0,7 0,7 0,4 1,6 2,5 5,2 55 30 79 43 SSW 3,5 0 0,3
09.12.2019 08:00:00 0,7 0,4 0,5 1,7 2,5 5,2 40 21 66 36 SW 10 0 0,0
09.12.2019 07:00:00 0,7 0,4 0,5 1,8 2,5 5,2 45 25 65 35 SW 30 0 0,1
09.12.2019 06:00:00 1,2 1,2 1,0 2,0 2,5 5,2 49 26 68 37 SW 0,5 0 0,7
09.12.2019 05:00:00 0,9 0,5 0,1 2,2 2,4 5,2 42 23 61 33 SW 2,7 0 0,0
09.12.2019 04:00:00 1,6 1,5 1,3 2,3 2,4 5,2 42 23 69 37 SW 14 0 0,0
09.12.2019 03:00:00 1,8 1,7 1,6 2,4 2,4 5,2 43 23 68 37 WSW 19 0 0,3
09.12.2019 02:00:00 2,0 2,0 1,8 2,4 2,4 5,2 44 24 77 42 WSW 6 0 0,0
09.12.2019 01:00:00 2,3 2,3 2,1 2,5 2,3 5,2 55 30 78 42 SW 15 0 0,0
09.12.2019 00:00:00 2,4 2,4 2,3 2,5 2,3 5,2 44 24 70 38 WSW 1,6 0 0,0
08.12.2019 23:00:00 2,6 2,6 2,4 2,6 2,2 5,2 48 26 70 38 WSW 0,4 0 0,0
08.12.2019 22:00:00 1,9 1,7 1,8 2,8 2,1 5,2 41 22 55 30 SW 38 0 0,1
08.12.2019 21:00:00 2,4 2,3 2,2 2,9 2,1 5,2 34 19 53 29 WSW 11 0 0,7
08.12.2019 20:00:00 3,1 3,1 3,0 2,9 2,0 5,2 28 15 81 44 W 0,1 0 3,6
08.12.2019 19:00:00 5,3 5,3 5,1 2,7 2,0 5,2 54 29 83 45 SW 0,1 0 0,3
08.12.2019 18:00:00 5,3 5,3 5,0 2,5 1,9 5,2 54 29 82 44 SW 0,1 0 0,0
08.12.2019 17:00:00 5,1 5,1 4,9 2,4 1,9 5,2 53 28 83 45 SW 0,2 0 0,1
08.12.2019 16:00:00 4,9 4,9 4,7 2,2 1,8 5,2 54 29 82 44 SW 0,2 0 0,4
08.12.2019 15:00:00 4,7 4,7 4,5 1,9 1,8 5,2 55 30 85 46 SW 0,2 0 0,2
08.12.2019 14:00:00 4,3 4,3 4,1 1,7 1,7 5,2 55 30 88 48 SW 0,2 0 0,0
08.12.2019 13:00:00 3,9 3,9 3,7 1,4 1,7 5,2 63 34 88 48 SSW 0,5 0 0,1
08.12.2019 12:00:00 3,6 3,6 3,5 1,1 1,7 5,2 56 30 83 45 SW 0,4 0 0,0
08.12.2019 11:00:00 3,4 3,1 3,2 0,9 1,7 5,3 51 27 77 42 SW 60 0 0,0
08.12.2019 10:00:00 3,4 2,9 3,0 0,8 1,7 5,3 54 29 80 43 SW 45 0 0,0
08.12.2019 09:00:00 3,1 2,9 2,8 0,7 1,7 5,3 54 29 89 48 SW 18 0 0,0
08.12.2019 08:00:00 2,8 2,8 2,5 0,6 1,7 5,3 49 27 77 41 SW 20 0 0,0
08.12.2019 07:00:00 2,5 2,3 2,2 0,5 1,7 5,3 49 26 69 37 SW 30 0 0,0
08.12.2019 06:00:00 2,1 1,9 1,9 0,5 1,7 5,3 50 27 73 40 SW 30 0 0,0
08.12.2019 05:00:00 1,9 1,9 1,7 0,4 1,7 5,3 54 29 80 43 SW 9 0 0,0
08.12.2019 04:00:00 1,7 1,5 1,5 0,4 1,7 5,3 47 25 71 39 WSW 37 0 0,0
08.12.2019 03:00:00 1,9 1,9 1,8 0,4 1,7 5,3 46 25 66 35 WSW 0,4 0 0,0
08.12.2019 02:00:00 2,3 2,3 2,1 0,4 1,7 5,3 46 25 63 34 WSW 0,1 0 0,0
08.12.2019 01:00:00 2,5 2,5 2,2 0,4 1,7 5,3 40 22 56 30 WSW 0,1 0 0,0
08.12.2019 00:00:00 2,1 2,1 1,9 0,4 1,7 5,3 38 20 53 29 WSW 0,2 0 0,0
07.12.2019 23:00:00 2,0 2,0 1,7 0,4 1,7 5,3 37 20 52 28 WSW 0,7 0 0,0
07.12.2019 22:00:00 2,3 2,3 2,0 0,4 1,7 5,3 35 19 50 27 WSW 0,1 0 0,0
07.12.2019 21:00:00 2,3 2,3 2,1 0,4 1,8 5,3 31 17 46 25 WSW 0,2 0 0,0
07.12.2019 20:00:00 2,1 2,1 1,9 0,4 1,8 5,3 29 16 45 24 WSW 0,2 0 0,0
07.12.2019 19:00:00 1,8 1,8 1,6 0,4 1,8 5,3 28 15 48 26 W 1,6 0 0,0
07.12.2019 18:00:00 1,5 1,4 1,3 0,4 1,8 5,3 28 15 44 24 W 25 0 0,0
07.12.2019 17:00:00 2,1 2,1 1,9 0,4 1,8 5,3 25 14 42 23 W 0,3 0 0,0
07.12.2019 16:00:00 2,4 2,4 2,2 0,4 1,8 5,3 23 12 41 22 W 0,1 0 0,0
07.12.2019 15:00:00 2,4 2,4 2,3 0,4 1,8 5,3 24 13 46 25 W 0,1 0 0,0
07.12.2019 14:00:00 2,6 2,6 2,4 0,4 1,8 5,3 27 14 49 26 W 0,1 0 0,4
07.12.2019 13:00:00 2,5 2,5 2,3 0,4 1,8 5,3 29 16 48 26 W 0,1 0 0,0
07.12.2019 12:00:00 2,4 2,4 2,2 0,4 1,9 5,3 28 15 52 28 W 0,1 0 0,0
07.12.2019 11:00:00 2,3 2,3 2,0 0,4 1,9 5,3 30 16 51 28 W 0,1 0 0,0
07.12.2019 10:00:00 2,4 2,4 2,1 0,4 1,9 5,3 29 16 56 30 W 0,1 0 0,0
07.12.2019 09:00:00 2,5 2,5 2,2 0,4 1,9 5,3 32 17 55 30 W 0,1 0 0,0
07.12.2019 08:00:00 2,5 2,5 2,1 0,4 1,9 5,3 27 15 52 28 W 0,1 0 0,0
07.12.2019 07:00:00 2,5 2,5 2,1 0,4 1,9 5,3 32 17 58 31 W 0,1 0 0,0
07.12.2019 06:00:00 2,5 2,5 2,1 0,4 1,9 5,3 35 19 64 34 W 0,1 0 0,1
07.12.2019 05:00:00 2,5 2,5 2,0 0,4 1,9 5,4 40 22 67 36 WSW 0,2 0 0,0
07.12.2019 04:00:00 2,0 2,0 1,6 0,4 1,9 5,4 40 21 73 40 WSW 0,1 0 0,0
07.12.2019 03:00:00 1,6 1,6 1,3 0,4 1,9 5,4 46 25 67 36 WSW 0,1 0 0,0
07.12.2019 02:00:00 1,2 1,2 0,9 0,4 1,9 5,4 49 26 70 38 WSW 0,1 0 0,0
07.12.2019 01:00:00 0,7 0,7 0,5 0,4 1,9 5,4 49 26 76 41 WSW 0,1 0 0,2
07.12.2019 00:00:00 0,5 0,5 0,4 0,4 1,9 5,4 46 25 68 37 WSW 0,2 0 1,5
06.12.2019 23:00:00 0,6 0,6 0,4 0,4 1,9 5,4 49 26 74 40 SW 0,1 0 1,2
06.12.2019 22:00:00 0,9 0,9 0,6 0,4 1,9 5,4 50 27 72 39 SW 0,2 0 0,8
06.12.2019 21:00:00 0,8 0,8 0,5 0,4 1,9 5,4 50 27 69 37 SW 0,2 0 0,0
06.12.2019 20:00:00 0,7 0,7 0,5 0,4 1,9 5,4 50 27 68 37 SW 0,1 0 0,0
06.12.2019 19:00:00 0,3 0,3 0,2 0,4 1,9 5,4 43 23 65 35 SW 0,1 0 0,0
06.12.2019 18:00:00 0,2 0,2 0,1 0,4 1,9 5,4 45 25 63 34 SW 0,1 0 0,0
06.12.2019 17:00:00 -0,1 -0,1 -0,1 0,4 1,9 5,4 43 23 61 33 SW 0,2 0 0,0
06.12.2019 16:00:00 -0,8 -0,8 -0,8 0,4 1,9 5,4 41 22 55 30 SW 0,1 0 0,0
06.12.2019 15:00:00 -1,0 -1,1 -0,8 0,4 1,9 5,4 38 20 54 29 SW 0,3 0 0,0
06.12.2019 14:00:00 -1,5 -2,9 -1,2 0,4 1,9 5,4 40 21 55 30 SW 5 0 0,0
06.12.2019 13:00:00 -1,3 -4,4 -1,1 0,4 1,9 5,4 31 17 49 26 SW 22 9 0,0
06.12.2019 12:00:00 0,1 -5,9 -0,5 0,4 1,9 5,4 34 19 49 26 SW 25 29 0,0
06.12.2019 11:00:00 -0,3 -7,3 -0,6 0,3 1,9 5,4 34 19 47 26 SW 25 4 0,0
06.12.2019 10:00:00 -1,0 -7,6 -1,9 0,4 2,0 5,4 35 19 50 27 SW 30 38 0,0
06.12.2019 09:00:00 -1,4 -7,5 -2,4 0,4 2,0 5,4 35 19 46 25 SW 35 40 0,0
06.12.2019 08:00:00 -3,4 -6,7 -4,6 0,4 2,0 5,4 31 17 44 24 SW 35 0 0,0
06.12.2019 07:00:00 -2,8 -7,1 -4,4 0,4 2,0 5,4 34 18 44 24 SW 40 0 0,0

tt = Température de l'air
td = dewpoint
tt 5cm = Température de l'air 5cm
tt -5cm = Température de l'air -5cm
tt -20cm = Température de l'air -20cm
tt -100cm = Température de l'air -100cm
ff = Vitesse du vent
fx = gusts
dd = Direction du vent
vv = visibility
sd = Ensoleillement
rr = Quantités de précipitations

stations d'obs. à proximité